Bushnell, Illinois
Current Conditions -  °F | °C
As of 1:55 AM on Saturday 25 Oct 2014 (Local Time) from KMQB Reporting Station
Clear Clear  
Wind Chill:   Ceiling: Unl
Heat Index: 10°   Visibility: 7mi
Dew Point: 10°   Wind: 6mph
Humidity: 97%   Direction: 260°W
Pressure: 29.98"   Gusts: NA
Location:  40.55°N, 90.51°W
Report Text: KMQB 250655Z AUTO 26005KT 7SM CLR 10/10 A2998 RMK AO2 T00990095
Loading
Personal Weather Stations






























Interactive Weather Map
Tropical Storm Tracking
New forecast layout! Learn more

10-Day Weather Forecast

Advertisements
Track Severe Weather on mobile